createdAt,value
2018-07-30T00:00:09.000Z,35.9
2018-07-30T00:01:09.000Z,35.9
2018-07-30T00:03:09.000Z,35.9
2018-07-30T00:05:09.000Z,35.9
2018-07-30T00:06:54.000Z,35.9
2018-07-30T00:08:09.000Z,35.9
2018-07-30T00:09:09.000Z,35.9
2018-07-30T00:11:09.000Z,35.9
2018-07-30T00:13:09.000Z,35.8
2018-07-30T00:15:09.000Z,35.8
2018-07-30T00:17:09.000Z,35.8
2018-07-30T00:19:09.000Z,35.8
2018-07-30T00:21:09.000Z,35.8
2018-07-30T00:22:09.000Z,35.8
2018-07-30T00:24:09.000Z,35.9
2018-07-30T00:26:09.000Z,35.9
2018-07-30T00:28:09.000Z,35.9
2018-07-30T00:29:54.000Z,35.9
2018-07-30T00:31:09.000Z,35.8
2018-07-30T00:33:09.000Z,35.8
2018-07-30T00:34:09.000Z,35.8
2018-07-30T00:36:09.000Z,35.8
2018-07-30T00:37:09.000Z,35.7
2018-07-30T00:39:09.000Z,35.8
2018-07-30T00:40:09.000Z,35.8
2018-07-30T00:41:09.000Z,35.8
2018-07-30T00:43:09.000Z,35.9
2018-07-30T00:44:09.000Z,35.9
2018-07-30T00:46:09.000Z,35.9
2018-07-30T00:47:09.000Z,35.9
2018-07-30T00:48:09.000Z,36
2018-07-30T00:49:09.000Z,36
2018-07-30T00:51:09.000Z,36
2018-07-30T00:52:09.000Z,36
2018-07-30T00:53:09.000Z,36
2018-07-30T00:54:09.000Z,36.1
2018-07-30T00:55:54.000Z,36.2
2018-07-30T00:57:09.000Z,36.1
2018-07-30T00:59:09.000Z,36
2018-07-30T01:01:09.000Z,36
2018-07-30T01:03:09.000Z,35.9
2018-07-30T01:04:09.000Z,35.9
2018-07-30T01:05:09.000Z,36
2018-07-30T01:07:09.000Z,36
2018-07-30T01:08:09.000Z,36.1
2018-07-30T01:09:09.000Z,36.1
2018-07-30T01:11:09.000Z,36.1
2018-07-30T01:13:09.000Z,36
2018-07-30T01:15:09.000Z,36
2018-07-30T01:16:09.000Z,36
2018-07-30T01:18:09.000Z,36
2018-07-30T01:19:54.000Z,36
2018-07-30T01:21:09.000Z,35.9
2018-07-30T01:22:09.000Z,35.9
2018-07-30T01:24:09.000Z,35.9
2018-07-30T01:25:09.000Z,35.9
2018-07-30T01:26:09.000Z,35.9
2018-07-30T01:28:09.000Z,36
2018-07-30T01:29:09.000Z,36
2018-07-30T01:31:09.000Z,36
2018-07-30T01:32:09.000Z,36
2018-07-30T01:33:09.000Z,36.1
2018-07-30T01:35:09.000Z,36.1
2018-07-30T01:37:09.000Z,36
2018-07-30T01:39:09.000Z,35.9
2018-07-30T01:40:09.000Z,35.9
2018-07-30T01:42:09.000Z,35.9
2018-07-30T01:43:09.000Z,35.9
2018-07-30T01:44:09.000Z,36
2018-07-30T01:45:09.000Z,36
2018-07-30T01:47:09.000Z,36
2018-07-30T01:49:09.000Z,36
2018-07-30T01:50:09.000Z,36
2018-07-30T01:51:09.000Z,36
2018-07-30T01:53:09.000Z,36
2018-07-30T01:55:09.000Z,35.9
2018-07-30T01:56:09.000Z,35.8
2018-07-30T01:57:09.000Z,35.9
2018-07-30T01:59:09.000Z,35.9
2018-07-30T02:00:09.000Z,35.9
2018-07-30T02:02:09.000Z,36
2018-07-30T02:03:09.000Z,36
2018-07-30T02:05:09.000Z,36
2018-07-30T02:07:09.000Z,36
2018-07-30T02:08:09.000Z,36
2018-07-30T02:09:53.000Z,36
2018-07-30T02:11:09.000Z,35.9
2018-07-30T02:12:09.000Z,35.9
2018-07-30T02:14:09.000Z,35.9
2018-07-30T02:15:09.000Z,35.9
2018-07-30T02:16:09.000Z,36
2018-07-30T02:17:09.000Z,36
2018-07-30T02:18:09.000Z,36.1
2018-07-30T02:20:09.000Z,36.1
2018-07-30T02:21:09.000Z,36.1
2018-07-30T02:22:53.000Z,36.1
2018-07-30T02:24:09.000Z,36
2018-07-30T02:25:09.000Z,36
2018-07-30T02:27:09.000Z,36
2018-07-30T02:29:09.000Z,35.9
2018-07-30T02:30:09.000Z,35.9
2018-07-30T02:31:09.000Z,35.9
2018-07-30T02:33:09.000Z,35.9
2018-07-30T02:35:09.000Z,35.9
2018-07-30T02:36:09.000Z,35.8
2018-07-30T02:38:09.000Z,35.8
2018-07-30T02:40:09.000Z,35.8
2018-07-30T02:41:09.000Z,35.8
2018-07-30T02:43:09.000Z,35.8
2018-07-30T02:45:09.000Z,35.8
2018-07-30T02:47:09.000Z,35.8
2018-07-30T02:49:09.000Z,35.7
2018-07-30T02:50:09.000Z,35.7
2018-07-30T02:52:09.000Z,35.7
2018-07-30T02:54:09.000Z,35.7
2018-07-30T02:56:09.000Z,35.7
2018-07-30T02:58:09.000Z,35.6
2018-07-30T03:00:09.000Z,35.5
2018-07-30T03:01:09.000Z,35.6
2018-07-30T03:02:09.000Z,35.6
2018-07-30T03:04:09.000Z,35.6
2018-07-30T03:06:09.000Z,35.7
2018-07-30T03:08:09.000Z,35.6
2018-07-30T03:10:09.000Z,35.6
2018-07-30T03:12:09.000Z,35.6
2018-07-30T03:13:53.000Z,35.6
2018-07-30T03:15:09.000Z,35.5
2018-07-30T03:16:09.000Z,35.6
2018-07-30T03:18:09.000Z,35.6
2018-07-30T03:20:09.000Z,35.6
2018-07-30T03:22:09.000Z,35.6
2018-07-30T03:24:09.000Z,35.6
2018-07-30T03:25:09.000Z,35.6
2018-07-30T03:26:09.000Z,35.7
2018-07-30T03:27:09.000Z,35.7
2018-07-30T03:29:09.000Z,35.7
2018-07-30T03:31:09.000Z,35.6
2018-07-30T03:32:53.000Z,35.6
2018-07-30T03:34:09.000Z,35.5
2018-07-30T03:35:09.000Z,35.5
2018-07-30T03:37:09.000Z,35.6
2018-07-30T03:39:09.000Z,35.5
2018-07-30T03:40:09.000Z,35.5
2018-07-30T03:41:09.000Z,35.6
2018-07-30T03:42:09.000Z,35.7
2018-07-30T03:43:09.000Z,35.7
2018-07-30T03:44:09.000Z,35.8
2018-07-30T03:45:09.000Z,35.9
2018-07-30T03:47:09.000Z,35.9
2018-07-30T03:48:09.000Z,35.9
2018-07-30T03:49:09.000Z,35.9
2018-07-30T03:50:09.000Z,35.9
2018-07-30T03:52:09.000Z,35.9
2018-07-30T03:54:09.000Z,35.8
2018-07-30T03:56:09.000Z,35.8
2018-07-30T03:58:09.000Z,35.7
2018-07-30T04:00:09.000Z,35.5
2018-07-30T04:02:09.000Z,35.5
2018-07-30T04:03:53.000Z,35.5
2018-07-30T04:05:09.000Z,35.5
2018-07-30T04:06:09.000Z,35.5
2018-07-30T04:08:09.000Z,35.6
2018-07-30T04:09:09.000Z,35.7
2018-07-30T04:10:09.000Z,35.7
2018-07-30T04:11:54.000Z,35.8
2018-07-30T04:13:09.000Z,35.8
2018-07-30T04:14:09.000Z,35.8
2018-07-30T04:16:09.000Z,35.8
2018-07-30T04:17:09.000Z,35.8
2018-07-30T04:18:09.000Z,35.8
2018-07-30T04:20:09.000Z,35.8
2018-07-30T04:21:54.000Z,35.7
2018-07-30T04:23:09.000Z,35.7
2018-07-30T04:25:09.000Z,35.6
2018-07-30T04:26:54.000Z,35
2018-07-30T04:28:09.000Z,34.3
2018-07-30T04:29:09.000Z,33.6
2018-07-30T04:30:09.000Z,32.9
2018-07-30T04:32:09.000Z,31.5
2018-07-30T04:33:09.000Z,30.9
2018-07-30T04:35:09.000Z,30.3
2018-07-30T04:37:09.000Z,30.3
2018-07-30T04:39:09.000Z,30.1
2018-07-30T04:40:09.000Z,30.1
2018-07-30T04:42:09.000Z,30.5
2018-07-30T04:44:09.000Z,30.7
2018-07-30T04:45:09.000Z,30.8
2018-07-30T04:46:09.000Z,30.8
2018-07-30T04:48:09.000Z,30.3
2018-07-30T04:49:09.000Z,30.1
2018-07-30T04:51:09.000Z,29.8
2018-07-30T04:52:09.000Z,29.6
2018-07-30T04:54:09.000Z,29.6
2018-07-30T04:56:09.000Z,29.2
2018-07-30T04:58:09.000Z,28.7
2018-07-30T05:00:09.000Z,28.1
2018-07-30T05:02:09.000Z,27.4
2018-07-30T05:04:09.000Z,26.8
2018-07-30T05:06:09.000Z,26.4
2018-07-30T05:07:09.000Z,26.2
2018-07-30T05:08:09.000Z,26
2018-07-30T05:09:09.000Z,26
2018-07-30T05:11:09.000Z,25.8
2018-07-30T05:13:09.000Z,25.7
2018-07-30T05:14:09.000Z,25.6
2018-07-30T05:15:09.000Z,25.6
2018-07-30T05:16:09.000Z,25.6
2018-07-30T05:17:09.000Z,25.8
2018-07-30T05:19:09.000Z,26.1
2018-07-30T05:20:09.000Z,26.2
2018-07-30T05:21:09.000Z,26.4
2018-07-30T05:23:09.000Z,26.7
2018-07-30T05:24:09.000Z,26.8
2018-07-30T05:26:09.000Z,27
2018-07-30T05:27:09.000Z,27.1
2018-07-30T05:28:09.000Z,27.2
2018-07-30T05:29:09.000Z,27.3
2018-07-30T05:31:09.000Z,27.3
2018-07-30T05:32:54.000Z,27.3
2018-07-30T05:34:09.000Z,27.2
2018-07-30T05:36:09.000Z,27.3
2018-07-30T05:38:09.000Z,27.3
2018-07-30T05:39:09.000Z,27.2
2018-07-30T05:40:09.000Z,27.1
2018-07-30T05:41:09.000Z,26.9
2018-07-30T05:42:09.000Z,26.9
2018-07-30T05:44:09.000Z,26.7
2018-07-30T05:46:09.000Z,26.5
2018-07-30T05:47:09.000Z,26.5
2018-07-30T05:49:09.000Z,26.4
2018-07-30T05:50:09.000Z,26.4
2018-07-30T05:52:09.000Z,26.3
2018-07-30T05:54:09.000Z,26.3
2018-07-30T05:56:09.000Z,26.2
2018-07-30T05:57:09.000Z,26.2
2018-07-30T05:59:09.000Z,26.4
2018-07-30T06:00:09.000Z,26.5
2018-07-30T06:02:09.000Z,26.6
2018-07-30T06:03:09.000Z,26.6
2018-07-30T06:05:09.000Z,26.6
2018-07-30T06:06:09.000Z,26.7
2018-07-30T06:08:09.000Z,26.8
2018-07-30T06:10:09.000Z,26.8
2018-07-30T06:12:09.000Z,26.9
2018-07-30T06:13:09.000Z,27
2018-07-30T06:14:09.000Z,27.1
2018-07-30T06:15:09.000Z,27.2
2018-07-30T06:17:09.000Z,27.3
2018-07-30T06:18:09.000Z,27.4
2018-07-30T06:19:53.000Z,27.6
2018-07-30T06:21:09.000Z,27.6
2018-07-30T06:23:09.000Z,27.7
2018-07-30T06:24:09.000Z,27.7
2018-07-30T06:25:09.000Z,27.7
2018-07-30T06:27:09.000Z,27.8
2018-07-30T06:28:09.000Z,27.9
2018-07-30T06:30:09.000Z,28.2
2018-07-30T06:32:09.000Z,28.5
2018-07-30T06:33:09.000Z,28.7
2018-07-30T06:34:53.000Z,29.1
2018-07-30T06:36:09.000Z,29.2
2018-07-30T06:37:53.000Z,29.4
2018-07-30T06:39:09.000Z,29.5
2018-07-30T06:41:09.000Z,29.9
2018-07-30T06:43:09.000Z,30
2018-07-30T06:45:09.000Z,30.1
2018-07-30T06:46:09.000Z,30.1
2018-07-30T06:48:09.000Z,30.3
2018-07-30T06:49:09.000Z,30.4
2018-07-30T06:50:09.000Z,30.4
2018-07-30T06:51:09.000Z,30.5
2018-07-30T06:53:09.000Z,30.6
2018-07-30T06:54:09.000Z,30.6
2018-07-30T06:56:09.000Z,30.5
2018-07-30T06:58:09.000Z,30.5
2018-07-30T06:59:09.000Z,30.5
2018-07-30T07:00:09.000Z,30.7
2018-07-30T07:02:09.000Z,30.9
2018-07-30T07:04:09.000Z,30.9
2018-07-30T07:05:09.000Z,30.9
2018-07-30T07:06:09.000Z,31
2018-07-30T07:07:09.000Z,31.1
2018-07-30T07:09:09.000Z,31.1
2018-07-30T07:10:53.000Z,31.2
2018-07-30T07:12:09.000Z,31.1
2018-07-30T07:13:09.000Z,31.2
2018-07-30T07:14:09.000Z,31.2
2018-07-30T07:16:09.000Z,31.3
2018-07-30T07:18:09.000Z,31.3
2018-07-30T07:19:09.000Z,31.3
2018-07-30T07:21:09.000Z,31.5
2018-07-30T07:23:09.000Z,31.5
2018-07-30T07:24:09.000Z,31.6
2018-07-30T07:26:09.000Z,31.9
2018-07-30T07:27:09.000Z,32
2018-07-30T07:29:09.000Z,32.3
2018-07-30T07:30:09.000Z,32.4
2018-07-30T07:32:09.000Z,32.5
2018-07-30T07:33:09.000Z,32.6
2018-07-30T07:34:09.000Z,32.7
2018-07-30T07:36:09.000Z,32.7
2018-07-30T07:38:09.000Z,32.7
2018-07-30T07:39:09.000Z,32.8
2018-07-30T07:41:09.000Z,33
2018-07-30T07:43:09.000Z,33
2018-07-30T07:45:09.000Z,33
2018-07-30T07:46:09.000Z,33
2018-07-30T07:48:09.000Z,33.2
2018-07-30T07:50:09.000Z,33.1
2018-07-30T07:51:09.000Z,32.9
2018-07-30T07:53:09.000Z,33
2018-07-30T07:54:09.000Z,33.2
2018-07-30T07:55:09.000Z,33.4
2018-07-30T07:57:09.000Z,33.8
2018-07-30T07:59:09.000Z,33.9
2018-07-30T08:00:09.000Z,33.8
2018-07-30T08:02:09.000Z,34.1
2018-07-30T08:03:09.000Z,34.3
2018-07-30T08:05:09.000Z,34.7
2018-07-30T08:06:09.000Z,34.9
2018-07-30T08:08:09.000Z,34.9
2018-07-30T08:09:09.000Z,34.9
2018-07-30T08:11:09.000Z,35
2018-07-30T08:12:09.000Z,35.2
2018-07-30T08:13:09.000Z,35.2
2018-07-30T08:14:09.000Z,34.9
2018-07-30T08:16:09.000Z,34.9
2018-07-30T08:18:09.000Z,34.7
2018-07-30T08:20:09.000Z,34.3
2018-07-30T08:22:08.000Z,33.7
2018-07-30T08:24:08.000Z,33.3
2018-07-30T08:25:08.000Z,33.3
2018-07-30T08:26:08.000Z,33.5
2018-07-30T08:28:08.000Z,33.9
2018-07-30T08:29:53.000Z,34
2018-07-30T08:31:08.000Z,34.1
2018-07-30T08:33:08.000Z,33.9
2018-07-30T08:34:08.000Z,33.7
2018-07-30T08:35:08.000Z,33.7
2018-07-30T08:37:08.000Z,33.7
2018-07-30T08:38:08.000Z,33.7
2018-07-30T08:39:53.000Z,33.9
2018-07-30T08:41:08.000Z,33.6
2018-07-30T08:42:08.000Z,33.8
2018-07-30T08:43:08.000Z,33.8
2018-07-30T08:45:08.000Z,33.5
2018-07-30T08:46:08.000Z,33.6
2018-07-30T08:48:08.000Z,34.4
2018-07-30T08:49:08.000Z,34.8
2018-07-30T08:50:53.000Z,34.6
2018-07-30T08:52:08.000Z,34.2
2018-07-30T08:53:08.000Z,34.1
2018-07-30T08:54:08.000Z,34.1
2018-07-30T08:56:08.000Z,34.2
2018-07-30T08:58:08.000Z,33.9
2018-07-30T08:59:08.000Z,33.9
2018-07-30T09:01:08.000Z,34
2018-07-30T09:03:08.000Z,33.9
2018-07-30T09:05:08.000Z,33.7
2018-07-30T09:07:08.000Z,33.6
2018-07-30T09:08:08.000Z,33.5
2018-07-30T09:10:08.000Z,33
2018-07-30T09:11:08.000Z,33
2018-07-30T09:13:08.000Z,33.2
2018-07-30T09:15:08.000Z,33.4
2018-07-30T09:17:08.000Z,33.7
2018-07-30T09:18:08.000Z,33.9
2018-07-30T09:20:08.000Z,34.2
2018-07-30T09:22:08.000Z,34.4
2018-07-30T09:24:08.000Z,34.3
2018-07-30T09:25:09.000Z,34.1
2018-07-30T09:27:09.000Z,33.5
2018-07-30T09:28:09.000Z,33.4
2018-07-30T09:29:09.000Z,33.6
2018-07-30T09:31:09.000Z,33.7
2018-07-30T09:32:09.000Z,33.6
2018-07-30T09:33:09.000Z,33.5
2018-07-30T09:34:09.000Z,33.5
2018-07-30T09:36:09.000Z,33.6
2018-07-30T09:38:09.000Z,33.5
2018-07-30T09:39:09.000Z,33.2
2018-07-30T09:40:09.000Z,33.1
2018-07-30T09:42:09.000Z,32.9
2018-07-30T09:44:09.000Z,32.7
2018-07-30T09:46:09.000Z,33
2018-07-30T09:48:09.000Z,33.3
2018-07-30T09:50:09.000Z,33.3
2018-07-30T09:52:09.000Z,33.4
2018-07-30T09:54:09.000Z,33.6
2018-07-30T09:55:09.000Z,33.5
2018-07-30T09:57:09.000Z,33.4
2018-07-30T09:58:09.000Z,33.4
2018-07-30T10:00:09.000Z,33.7
2018-07-30T10:02:09.000Z,33.8
2018-07-30T10:03:09.000Z,33.9
2018-07-30T10:05:09.000Z,33.9
2018-07-30T10:06:54.000Z,33.8
2018-07-30T10:08:09.000Z,33.7
2018-07-30T10:10:09.000Z,33.6
2018-07-30T10:11:09.000Z,33.7
2018-07-30T10:12:54.000Z,33.6
2018-07-30T10:14:09.000Z,33.7
2018-07-30T10:15:09.000Z,33.8
2018-07-30T10:16:09.000Z,34
2018-07-30T10:18:09.000Z,34.3
2018-07-30T10:19:09.000Z,34.3
2018-07-30T10:21:09.000Z,34.3
2018-07-30T10:23:09.000Z,34.2
2018-07-30T10:24:09.000Z,34
2018-07-30T10:26:09.000Z,34
2018-07-30T10:27:09.000Z,34
2018-07-30T10:29:09.000Z,33.7
2018-07-30T10:30:09.000Z,33.6
2018-07-30T10:32:09.000Z,33.6
2018-07-30T10:33:09.000Z,33.8
2018-07-30T10:35:09.000Z,34
2018-07-30T10:37:09.000Z,34.1
2018-07-30T10:39:09.000Z,33.9
2018-07-30T10:40:09.000Z,33.9
2018-07-30T10:42:09.000Z,34.2
2018-07-30T10:44:09.000Z,34.4
2018-07-30T10:45:09.000Z,34.4
2018-07-30T10:46:09.000Z,34.4
2018-07-30T10:48:09.000Z,34.2
2018-07-30T10:49:09.000Z,34.3
2018-07-30T10:50:09.000Z,34.4
2018-07-30T10:52:09.000Z,34.8
2018-07-30T10:54:09.000Z,34.7
2018-07-30T10:55:54.000Z,34.8
2018-07-30T10:57:09.000Z,34.8
2018-07-30T10:58:09.000Z,34.9
2018-07-30T11:00:09.000Z,35
2018-07-30T11:01:09.000Z,35.1
2018-07-30T11:02:09.000Z,35.1
2018-07-30T11:04:09.000Z,35.1
2018-07-30T11:06:09.000Z,34.8
2018-07-30T11:07:09.000Z,34.7
2018-07-30T11:08:09.000Z,34.6
2018-07-30T11:09:54.000Z,34.6
2018-07-30T11:11:09.000Z,34.6
2018-07-30T11:13:09.000Z,34.9
2018-07-30T11:14:09.000Z,35.1
2018-07-30T11:16:09.000Z,35.4
2018-07-30T11:18:09.000Z,35.7
2018-07-30T11:19:09.000Z,35.8
2018-07-30T11:21:09.000Z,36.1
2018-07-30T11:22:09.000Z,36.2
2018-07-30T11:24:09.000Z,36.4
2018-07-30T11:26:09.000Z,36.3
2018-07-30T11:28:09.000Z,36.3
2018-07-30T11:29:09.000Z,36.3
2018-07-30T11:30:09.000Z,36.5
2018-07-30T11:32:09.000Z,36.6
2018-07-30T11:34:09.000Z,36.7
2018-07-30T11:35:09.000Z,36.8
2018-07-30T11:36:09.000Z,36.9
2018-07-30T11:37:54.000Z,37
2018-07-30T11:39:09.000Z,37.1
2018-07-30T11:40:09.000Z,37.1
2018-07-30T11:41:09.000Z,37.1
2018-07-30T11:43:09.000Z,37.1
2018-07-30T11:45:09.000Z,37
2018-07-30T11:47:09.000Z,36.8
2018-07-30T11:49:09.000Z,36.3
2018-07-30T11:50:09.000Z,36.2
2018-07-30T11:51:09.000Z,36.2
2018-07-30T11:52:54.000Z,36.1
2018-07-30T11:54:09.000Z,36
2018-07-30T11:55:09.000Z,36
2018-07-30T11:56:54.000Z,36
2018-07-30T11:58:09.000Z,36
2018-07-30T12:00:10.000Z,35.9
2018-07-30T12:02:09.000Z,35.6
2018-07-30T12:04:09.000Z,35.5
2018-07-30T12:06:09.000Z,35.6
2018-07-30T12:07:09.000Z,35.7
2018-07-30T12:08:09.000Z,35.8
2018-07-30T12:09:09.000Z,35.9
2018-07-30T12:11:09.000Z,35.8
2018-07-30T12:13:09.000Z,35.5
2018-07-30T12:14:09.000Z,35.4
2018-07-30T12:15:09.000Z,35.4
2018-07-30T12:17:09.000Z,35.6
2018-07-30T12:19:09.000Z,35.7
2018-07-30T12:22:56.000Z,35.3
2018-07-30T12:24:56.000Z,35.4
2018-07-30T12:26:56.000Z,35.5
2018-07-30T12:27:56.000Z,35.6
2018-07-30T12:29:56.000Z,35.8
2018-07-30T12:30:56.000Z,35.7
2018-07-30T12:32:56.000Z,35.7
2018-07-30T12:34:56.000Z,35.7
2018-07-30T12:36:55.000Z,35.7
2018-07-30T12:37:55.000Z,35.8
2018-07-30T12:39:55.000Z,35.9
2018-07-30T12:40:55.000Z,35.7
2018-07-30T12:41:55.000Z,35.7
2018-07-30T12:43:55.000Z,35.8
2018-07-30T12:44:55.000Z,35.9
2018-07-30T12:45:55.000Z,36.1
2018-07-30T12:47:55.000Z,36.2
2018-07-30T12:49:55.000Z,36
2018-07-30T12:50:55.000Z,35.8
2018-07-30T12:52:55.000Z,35.6
2018-07-30T12:54:40.000Z,35.5
2018-07-30T12:55:55.000Z,35.2
2018-07-30T12:56:55.000Z,35.1
2018-07-30T12:58:55.000Z,35
2018-07-30T12:59:55.000Z,34.9
2018-07-30T13:01:55.000Z,35
2018-07-30T13:02:55.000Z,35.1
2018-07-30T13:03:55.000Z,35.2
2018-07-30T13:05:55.000Z,35.2
2018-07-30T13:06:55.000Z,35.2
2018-07-30T13:07:55.000Z,35.2
2018-07-30T13:09:55.000Z,35.2
2018-07-30T13:10:55.000Z,35.2
2018-07-30T13:11:55.000Z,35.2
2018-07-30T13:13:40.000Z,35.3
2018-07-30T13:14:40.000Z,35.4
2018-07-30T13:16:55.000Z,35.3
2018-07-30T13:17:55.000Z,35.2
2018-07-30T13:18:55.000Z,35.2
2018-07-30T13:20:55.000Z,35.2
2018-07-30T13:21:55.000Z,35.1
2018-07-30T13:22:55.000Z,35.2
2018-07-30T13:24:55.000Z,35.2
2018-07-30T13:25:55.000Z,35.3
2018-07-30T13:26:55.000Z,35.2
2018-07-30T13:27:55.000Z,35.3
2018-07-30T13:29:55.000Z,35.3
2018-07-30T13:30:55.000Z,35.3
2018-07-30T13:32:40.000Z,35.4
2018-07-30T13:33:55.000Z,35.4
2018-07-30T13:34:55.000Z,35.3
2018-07-30T13:35:55.000Z,35.3
2018-07-30T13:37:55.000Z,35.5
2018-07-30T13:39:55.000Z,35.6
2018-07-30T13:40:55.000Z,35.7
2018-07-30T13:41:55.000Z,35.7
2018-07-30T13:43:55.000Z,35.8
2018-07-30T13:45:55.000Z,35.7
2018-07-30T13:47:55.000Z,35.7
2018-07-30T13:49:55.000Z,35.9
2018-07-30T13:51:40.000Z,36
2018-07-30T13:52:55.000Z,36.1
2018-07-30T13:54:55.000Z,36.2
2018-07-30T13:55:55.000Z,36.3
2018-07-30T13:57:55.000Z,36.5
2018-07-30T13:59:55.000Z,36.5
2018-07-30T14:00:55.000Z,36.6
2018-07-30T14:02:55.000Z,36.7
2018-07-30T14:04:55.000Z,36.6
2018-07-30T14:06:40.000Z,36.6
2018-07-30T14:07:55.000Z,36.6
2018-07-30T14:08:55.000Z,36.6
2018-07-30T14:10:55.000Z,36.6
2018-07-30T14:12:55.000Z,36.5
2018-07-30T14:14:55.000Z,36.5
2018-07-30T14:15:55.000Z,36.5
2018-07-30T14:17:55.000Z,36.6
2018-07-30T14:18:55.000Z,36.6
2018-07-30T14:20:55.000Z,36.6
2018-07-30T14:22:55.000Z,36.6
2018-07-30T14:24:40.000Z,36.6
2018-07-30T14:25:55.000Z,36.6
2018-07-30T14:27:55.000Z,36.6
2018-07-30T14:29:55.000Z,36.6
2018-07-30T14:30:55.000Z,36.6
2018-07-30T14:32:55.000Z,36.7
2018-07-30T14:34:55.000Z,36.7
2018-07-30T14:35:55.000Z,36.7
2018-07-30T14:37:55.000Z,36.7
2018-07-30T14:38:55.000Z,36.7
2018-07-30T14:40:55.000Z,36.7
2018-07-30T14:41:55.000Z,36.7
2018-07-30T14:42:55.000Z,36.7
2018-07-30T14:43:56.000Z,36.8
2018-07-30T14:45:56.000Z,36.9
2018-07-30T14:47:56.000Z,36.8
2018-07-30T14:48:56.000Z,36.8
2018-07-30T14:50:56.000Z,36.8
2018-07-30T14:51:56.000Z,36.8
2018-07-30T14:55:42.000Z,36.4
2018-07-30T14:56:42.000Z,36.4
2018-07-30T14:57:42.000Z,36.5
2018-07-30T14:59:42.000Z,36.6
2018-07-30T15:00:42.000Z,36.6
2018-07-30T15:01:42.000Z,36.7
2018-07-30T15:03:42.000Z,36.8
2018-07-30T15:05:42.000Z,36.8
2018-07-30T15:06:42.000Z,36.8
2018-07-30T15:07:42.000Z,36.8
2018-07-30T15:09:42.000Z,36.9
2018-07-30T15:11:42.000Z,36.9
2018-07-30T15:12:42.000Z,36.9
2018-07-30T15:14:27.000Z,37
2018-07-30T15:15:42.000Z,37
2018-07-30T15:16:42.000Z,37
2018-07-30T15:18:42.000Z,37
2018-07-30T15:19:42.000Z,37
2018-07-30T15:21:27.000Z,37
2018-07-30T15:22:42.000Z,37
2018-07-30T15:23:42.000Z,37
2018-07-30T15:24:42.000Z,37.1
2018-07-30T15:26:42.000Z,37.2
2018-07-30T15:27:42.000Z,37.2
2018-07-30T15:29:42.000Z,37.1
2018-07-30T15:31:42.000Z,37
2018-07-30T15:32:42.000Z,37
2018-07-30T15:34:42.000Z,36.9
2018-07-30T15:35:42.000Z,36.9
2018-07-30T15:36:42.000Z,36.9
2018-07-30T15:37:42.000Z,37
2018-07-30T15:39:42.000Z,37
2018-07-30T15:40:42.000Z,37
2018-07-30T15:41:42.000Z,37
2018-07-30T15:42:42.000Z,37
2018-07-30T15:44:42.000Z,36.9
2018-07-30T15:46:26.000Z,36.9
2018-07-30T15:47:42.000Z,36.8
2018-07-30T15:48:42.000Z,36.8
2018-07-30T15:49:42.000Z,36.9
2018-07-30T15:51:42.000Z,36.9
2018-07-30T15:53:42.000Z,36.9
2018-07-30T15:54:42.000Z,36.9
2018-07-30T15:55:42.000Z,36.9
2018-07-30T15:56:42.000Z,37
2018-07-30T15:57:42.000Z,37
2018-07-30T15:58:42.000Z,37.1
2018-07-30T16:00:42.000Z,37.1
2018-07-30T16:01:42.000Z,37.1
2018-07-30T16:03:42.000Z,37
2018-07-30T16:04:42.000Z,37
2018-07-30T16:06:42.000Z,37
2018-07-30T16:07:42.000Z,37.1
2018-07-30T16:08:42.000Z,37.1
2018-07-30T16:10:42.000Z,37.2
2018-07-30T16:12:42.000Z,37.2
2018-07-30T16:14:42.000Z,37.3
2018-07-30T16:16:42.000Z,37.4
2018-07-30T16:18:42.000Z,37.5
2018-07-30T16:20:26.000Z,37.5
2018-07-30T16:21:42.000Z,37.5
2018-07-30T16:22:42.000Z,37.6
2018-07-30T16:24:42.000Z,37.7
2018-07-30T16:25:42.000Z,37.7
2018-07-30T16:26:42.000Z,37.8
2018-07-30T16:27:42.000Z,37.8
2018-07-30T16:29:42.000Z,37.9
2018-07-30T16:30:42.000Z,37.9
2018-07-30T16:32:42.000Z,37.9
2018-07-30T16:33:42.000Z,37.9
2018-07-30T16:34:42.000Z,38
2018-07-30T16:36:26.000Z,38
2018-07-30T16:37:42.000Z,38
2018-07-30T16:38:42.000Z,38
2018-07-30T16:40:42.000Z,37.9
2018-07-30T16:41:42.000Z,38
2018-07-30T16:43:42.000Z,38
2018-07-30T16:45:42.000Z,37.9
2018-07-30T16:47:42.000Z,37.8
2018-07-30T16:49:42.000Z,37.8
2018-07-30T16:51:27.000Z,37.8
2018-07-30T16:52:42.000Z,37.8
2018-07-30T16:53:42.000Z,37.8
2018-07-30T16:54:42.000Z,37.8
2018-07-30T16:56:27.000Z,37.9
2018-07-30T16:57:42.000Z,37.9
2018-07-30T16:58:42.000Z,37.9
2018-07-30T17:00:27.000Z,38
2018-07-30T17:01:42.000Z,37.9
2018-07-30T17:03:42.000Z,37.9
2018-07-30T17:05:42.000Z,37.8
2018-07-30T17:07:42.000Z,37.7
2018-07-30T17:08:42.000Z,37.8
2018-07-30T17:10:42.000Z,37.7
2018-07-30T17:11:42.000Z,37.7
2018-07-30T17:13:42.000Z,37.7
2018-07-30T17:14:42.000Z,37.8
2018-07-30T17:16:27.000Z,37.8
2018-07-30T17:17:42.000Z,37.8
2018-07-30T17:18:42.000Z,37.8
2018-07-30T17:19:42.000Z,37.8
2018-07-30T17:21:42.000Z,37.8
2018-07-30T17:22:42.000Z,37.8
2018-07-30T17:23:42.000Z,37.8
2018-07-30T17:25:42.000Z,37.7
2018-07-30T17:26:42.000Z,37.7
2018-07-30T17:28:42.000Z,37.7
2018-07-30T17:30:42.000Z,37.7
2018-07-30T17:31:42.000Z,37.7
2018-07-30T17:32:42.000Z,37.7
2018-07-30T17:34:42.000Z,37.7
2018-07-30T17:36:42.000Z,37.7
2018-07-30T17:38:42.000Z,37.6
2018-07-30T17:39:42.000Z,37.6
2018-07-30T17:41:42.000Z,37.6
2018-07-30T17:42:42.000Z,37.5
2018-07-30T17:44:42.000Z,37.6
2018-07-30T17:45:42.000Z,37.6
2018-07-30T17:46:42.000Z,37.7
2018-07-30T17:48:42.000Z,37.7
2018-07-30T17:49:42.000Z,37.6
2018-07-30T17:50:42.000Z,37.6
2018-07-30T17:52:42.000Z,37.6
2018-07-30T17:54:42.000Z,37.5
2018-07-30T17:56:42.000Z,37.4
2018-07-30T17:57:42.000Z,37.5
2018-07-30T17:58:42.000Z,37.5
2018-07-30T18:00:42.000Z,37.4
2018-07-30T18:02:42.000Z,37.4
2018-07-30T18:04:42.000Z,37.3
2018-07-30T18:05:42.000Z,37.3
2018-07-30T18:07:42.000Z,37.4
2018-07-30T18:08:42.000Z,37.4
2018-07-30T18:09:42.000Z,37.5
2018-07-30T18:11:42.000Z,37.5
2018-07-30T18:12:42.000Z,37.5
2018-07-30T18:14:42.000Z,37.6
2018-07-30T18:15:42.000Z,37.5
2018-07-30T18:16:42.000Z,37.5
2018-07-30T18:17:42.000Z,37.6
2018-07-30T18:18:42.000Z,37.6
2018-07-30T18:19:42.000Z,37.6
2018-07-30T18:21:42.000Z,37.5
2018-07-30T18:23:42.000Z,37.5
2018-07-30T18:24:42.000Z,37.4
2018-07-30T18:25:42.000Z,37.5
2018-07-30T18:27:42.000Z,37.5
2018-07-30T18:28:42.000Z,37.5
2018-07-30T18:29:42.000Z,37.5
2018-07-30T18:31:42.000Z,37.5
2018-07-30T18:32:42.000Z,37.5
2018-07-30T18:33:42.000Z,37.5
2018-07-30T18:35:42.000Z,37.5
2018-07-30T18:36:42.000Z,37.5
2018-07-30T18:37:42.000Z,37.5
2018-07-30T18:38:42.000Z,37.5
2018-07-30T18:39:42.000Z,37.5
2018-07-30T18:41:42.000Z,37.5
2018-07-30T18:43:42.000Z,37.5
2018-07-30T18:44:42.000Z,37.5
2018-07-30T18:46:42.000Z,37.4
2018-07-30T18:48:27.000Z,37.4
2018-07-30T18:49:42.000Z,37.3
2018-07-30T18:50:42.000Z,37.3
2018-07-30T18:52:27.000Z,37.3
2018-07-30T18:53:42.000Z,37.3
2018-07-30T18:54:42.000Z,37.3
2018-07-30T18:55:42.000Z,37.3
2018-07-30T18:57:41.000Z,37.4
2018-07-30T18:58:41.000Z,37.4
2018-07-30T18:59:41.000Z,37.4
2018-07-30T19:00:41.000Z,37.4
2018-07-30T19:02:41.000Z,37.3
2018-07-30T19:04:41.000Z,37.2
2018-07-30T19:06:41.000Z,37.2
2018-07-30T19:07:41.000Z,37.2
2018-07-30T19:09:41.000Z,37.2
2018-07-30T19:10:41.000Z,37.2
2018-07-30T19:11:41.000Z,37.2
2018-07-30T19:13:41.000Z,37.3
2018-07-30T19:15:41.000Z,37.2
2018-07-30T19:17:41.000Z,37.2
2018-07-30T19:19:41.000Z,37.1
2018-07-30T19:21:41.000Z,37
2018-07-30T19:23:41.000Z,37
2018-07-30T19:25:41.000Z,36.9
2018-07-30T19:27:26.000Z,36.9
2018-07-30T19:28:41.000Z,36.9
2018-07-30T19:29:41.000Z,36.9
2018-07-30T19:31:41.000Z,36.9
2018-07-30T19:32:41.000Z,37
2018-07-30T19:34:41.000Z,37
2018-07-30T19:35:41.000Z,37
2018-07-30T19:37:41.000Z,37
2018-07-30T19:38:41.000Z,37
2018-07-30T19:39:41.000Z,37
2018-07-30T19:40:41.000Z,37.1
2018-07-30T19:42:41.000Z,37.2
2018-07-30T19:43:41.000Z,37.2
2018-07-30T19:45:41.000Z,37.2
2018-07-30T19:46:41.000Z,37.2
2018-07-30T19:47:41.000Z,37.2
2018-07-30T19:48:41.000Z,37.2
2018-07-30T19:50:41.000Z,37.2
2018-07-30T19:51:41.000Z,37.2
2018-07-30T19:52:41.000Z,37.2
2018-07-30T19:54:41.000Z,37.2
2018-07-30T19:56:26.000Z,37.2
2018-07-30T19:57:41.000Z,37.1
2018-07-30T19:58:41.000Z,37.1
2018-07-30T20:00:42.000Z,37.1
2018-07-30T20:01:42.000Z,37.1
2018-07-30T20:03:42.000Z,37
2018-07-30T20:05:42.000Z,36.9
2018-07-30T20:07:42.000Z,36.9
2018-07-30T20:08:42.000Z,36.9
2018-07-30T20:10:42.000Z,36.9
2018-07-30T20:12:42.000Z,36.9
2018-07-30T20:13:42.000Z,36.8
2018-07-30T20:15:42.000Z,36.8
2018-07-30T20:17:42.000Z,36.8
2018-07-30T20:18:42.000Z,36.8
2018-07-30T20:20:27.000Z,36.9